Time;durP1;ratioP1;P1;durP2;ratioP2;P2;SDS_P1;SDS_P2;PMS_P1;PMS_P2;Temp;Humidity;BMP_temperature;BMP_pressure;BME280_temperature;BME280_humidity;BME280_pressure;Samples;Min_cycle;Max_cycle;Signal;HPM_P1;HPM_P2
2022/05/26 00:01:03;;;;;;;2.83;0.60;;;;;;;13.00;64.43;96068.72;5032392;28;20547;-78
2022/05/26 00:03:28;;;;;;;2.00;0.57;;;;;;;12.93;64.50;96077.28;5014751;28;20183;-79
2022/05/26 00:05:54;;;;;;;1.80;0.80;;;;;;;13.12;63.70;96078.91;4997519;28;20210;-78
2022/05/26 00:08:19;;;;;;;0.70;0.60;;;;;;;13.02;64.09;96077.19;5013760;28;20591;-79
2022/05/26 00:10:44;;;;;;;4.00;0.70;;;;;;;13.10;63.94;96080.84;4981060;28;20435;-79
2022/05/26 00:13:10;;;;;;;2.83;0.60;;;;;;;13.07;63.97;96078.53;4994271;28;20183;-78
2022/05/26 00:15:35;;;;;;;4.87;0.73;;;;;;;13.06;64.32;96069.88;4993699;28;20560;-79
2022/05/26 00:18:04;;;;;;;1.60;0.60;;;;;;;13.12;63.99;96077.13;4994124;28;20226;-79
2022/05/26 00:20:29;;;;;;;1.73;0.47;;;;;;;13.17;63.83;96076.69;4993625;28;20180;-79
2022/05/26 00:22:54;;;;;;;2.10;0.67;;;;;;;13.15;63.69;96071.59;4993059;28;20931;-79
2022/05/26 00:25:19;;;;;;;1.17;0.60;;;;;;;13.21;63.74;96075.41;4993308;28;20219;-79
2022/05/26 00:27:45;;;;;;;2.50;0.60;;;;;;;13.24;63.67;96075.13;4993638;28;20233;-78
2022/05/26 00:30:11;;;;;;;3.13;0.80;;;;;;;13.24;63.57;96078.53;5011540;28;20568;-78
2022/05/26 00:32:36;;;;;;;3.10;0.80;;;;;;;13.29;63.03;96078.91;4993799;28;20230;-78
2022/05/26 00:35:01;;;;;;;3.63;0.60;;;;;;;13.27;63.18;96077.44;4993267;28;20179;-78
2022/05/26 00:37:26;;;;;;;3.83;0.77;;;;;;;13.28;63.15;96079.06;4993696;28;20229;-78
2022/05/26 00:39:52;;;;;;;1.73;0.60;;;;;;;13.21;63.86;96078.84;4978212;28;20183;-77
2022/05/26 00:42:17;;;;;;;2.40;0.60;;;;;;;13.13;64.15;96081.34;4977350;28;20218;-78
2022/05/26 00:44:43;;;;;;;3.43;0.70;;;;;;;13.06;64.10;96088.13;4992870;28;20586;-78
2022/05/26 00:47:11;;;;;;;0.93;0.60;;;;;;;13.08;63.99;96085.41;4977477;28;20203;-77
2022/05/26 00:49:45;;;;;;;1.23;0.63;;;;;;;13.06;64.02;96077.69;4993236;28;20648;-78
2022/05/26 00:52:16;;;;;;;1.83;0.57;;;;;;;13.18;63.56;96080.91;4977402;28;20264;-78
2022/05/26 00:54:43;;;;;;;1.37;0.83;;;;;;;13.08;63.47;96086.22;4976713;28;20729;-78
2022/05/26 00:57:12;;;;;;;2.63;0.50;;;;;;;13.20;63.25;96079.81;4977199;28;20207;-78
2022/05/26 00:59:57;;;;;;;2.40;0.50;;;;;;;13.08;63.71;96080.19;4977276;28;20254;-78
2022/05/26 01:02:25;;;;;;;1.07;0.50;;;;;;;13.00;63.69;96078.31;4977234;28;20257;-78
2022/05/26 01:04:53;;;;;;;2.97;0.50;;;;;;;12.93;63.90;96074.66;4976717;28;20291;-78
2022/05/26 01:07:21;;;;;;;1.90;0.70;;;;;;;13.09;63.60;96080.03;4993142;28;20579;-78
2022/05/26 01:09:47;;;;;;;0.57;0.50;;;;;;;13.03;63.63;96076.22;4992981;28;20210;-78
2022/05/26 01:12:12;;;;;;;2.30;0.53;;;;;;;12.87;64.33;96078.69;4993020;28;20218;-77
2022/05/26 01:14:44;;;;;;;2.80;0.60;;;;;;;12.95;63.65;96075.34;4992598;28;20195;-77
2022/05/26 01:17:32;;;;;;;1.53;0.53;;;;;;;12.97;63.57;96071.59;5009460;28;20207;-78
2022/05/26 01:20:03;;;;;;;2.77;0.50;;;;;;;12.89;63.79;96065.50;4976903;28;20252;-77
2022/05/26 01:22:50;;;;;;;0.83;0.40;;;;;;;12.91;63.55;96063.56;4992070;28;20270;-78
2022/05/26 01:25:53;;;;;;;0.63;0.57;;;;;;;13.02;63.19;96056.34;5023141;28;20205;-79
2022/05/26 01:28:27;;;;;;;2.00;0.60;;;;;;;12.93;63.48;96061.63;5030512;28;20186;-79
2022/05/26 01:31:18;;;;;;;3.47;0.60;;;;;;;12.75;64.65;96059.84;5030816;28;20211;-78
2022/05/26 01:34:10;;;;;;;1.13;0.40;;;;;;;12.87;63.11;96057.00;5033509;28;20183;-78
2022/05/26 01:36:50;;;;;;;3.00;0.67;;;;;;;12.77;63.88;96052.69;5001042;28;20743;-78
2022/05/26 01:39:15;;;;;;;1.83;0.60;;;;;;;12.85;63.71;96051.94;5016719;28;20259;-78
2022/05/26 01:41:48;;;;;;;1.43;0.60;;;;;;;12.89;63.48;96049.84;5016811;28;20281;-78
2022/05/26 01:44:22;;;;;;;1.10;0.53;;;;;;;12.69;63.98;96055.22;5016286;28;20178;-78
2022/05/26 01:46:50;;;;;;;1.40;0.60;;;;;;;12.67;64.29;96054.56;5016528;28;20214;-79
2022/05/26 01:49:34;;;;;;;2.00;0.50;;;;;;;12.60;64.73;96061.31;5017160;28;20229;-78
2022/05/26 01:52:05;;;;;;;0.90;0.57;;;;;;;12.52;64.42;96057.81;5050091;28;20709;-79
2022/05/26 01:54:53;;;;;;;1.43;0.63;;;;;;;12.58;64.72;96054.63;5015947;28;20261;-79
2022/05/26 01:57:25;;;;;;;2.13;0.57;;;;;;;12.53;65.15;96051.63;5034276;28;20264;-79
2022/05/26 02:00:00;;;;;;;0.77;0.50;;;;;;;12.59;64.64;96053.66;5000421;28;20336;-79
2022/05/26 02:02:31;;;;;;;2.50;0.60;;;;;;;12.54;65.02;96056.69;5000410;28;20252;-79
2022/05/26 02:04:58;;;;;;;2.80;0.70;;;;;;;12.50;65.28;96057.13;5016155;28;20202;-79
2022/05/26 02:07:41;;;;;;;1.50;0.60;;;;;;;12.58;64.80;96058.03;5032861;28;20645;-79
2022/05/26 02:10:12;;;;;;;1.20;0.50;;;;;;;12.72;64.57;96057.53;5016684;28;20181;-79
2022/05/26 02:12:40;;;;;;;2.20;0.87;;;;;;;12.64;64.84;96057.47;5016368;28;20205;-79
2022/05/26 02:15:09;;;;;;;4.00;0.70;;;;;;;12.62;64.79;96056.78;5032276;28;20185;-78
2022/05/26 02:17:39;;;;;;;3.67;0.63;;;;;;;12.65;64.75;96056.50;4999640;28;20229;-78
2022/05/26 02:20:28;;;;;;;1.80;0.50;;;;;;;12.62;65.09;96053.34;5016810;28;20254;-78
2022/05/26 02:22:59;;;;;;;4.00;0.60;;;;;;;12.66;64.87;96050.31;4998463;28;20278;-78
2022/05/26 02:25:27;;;;;;;2.10;0.60;;;;;;;12.63;64.95;96060.19;4998941;28;20207;-79
2022/05/26 02:27:54;;;;;;;3.07;0.60;;;;;;;12.70;64.52;96063.84;5016327;28;20293;-79
2022/05/26 02:30:26;;;;;;;2.17;0.60;;;;;;;12.82;64.09;96064.47;4999528;28;20240;-78
2022/05/26 02:32:53;;;;;;;2.27;0.80;;;;;;;12.75;65.19;96062.44;5015911;28;20197;-78
2022/05/26 02:35:28;;;;;;;1.27;0.60;;;;;;;12.74;64.89;96066.03;4998718;28;20186;-79
2022/05/26 02:38:02;;;;;;;1.03;0.70;;;;;;;12.74;65.84;96060.00;4999503;28;20198;-78
2022/05/26 02:40:28;;;;;;;0.87;0.70;;;;;;;12.76;65.30;96061.47;5016240;28;20174;-78
2022/05/26 02:42:57;;;;;;;2.10;0.63;;;;;;;12.74;65.51;96060.81;4999587;28;20213;-79
2022/05/26 02:45:34;;;;;;;1.97;0.50;;;;;;;12.75;65.35;96067.66;5047078;28;20195;-80
2022/05/26 02:48:00;;;;;;;1.43;0.60;;;;;;;12.65;65.96;96053.88;5015985;28;20206;-79
2022/05/26 02:50:52;;;;;;;5.20;0.70;;;;;;;12.69;65.47;96065.63;4999338;28;20655;-79
2022/05/26 02:53:22;;;;;;;1.30;0.60;;;;;;;12.73;65.21;96059.19;5015958;28;20207;-79
2022/05/26 02:55:47;;;;;;;0.63;0.63;;;;;;;12.73;64.79;96066.19;5031213;28;20198;-79
2022/05/26 02:58:35;;;;;;;2.10;0.60;;;;;;;12.76;64.72;96058.88;5015556;28;20206;-79
2022/05/26 03:01:08;;;;;;;1.17;0.50;;;;;;;12.81;64.82;96058.44;5015477;28;20183;-79
2022/05/26 03:03:41;;;;;;;0.50;0.50;;;;;;;12.77;64.52;96060.50;4999118;28;20190;-78
2022/05/26 03:06:12;;;;;;;1.80;0.53;;;;;;;12.82;64.41;96065.28;5015099;28;20695;-79
2022/05/26 03:08:39;;;;;;;1.30;0.60;;;;;;;12.88;63.95;96066.47;5015120;28;20179;-79
2022/05/26 03:11:08;;;;;;;1.33;0.60;;;;;;;12.85;63.95;96064.16;4999014;28;20232;-80
2022/05/26 03:13:33;;;;;;;1.93;0.60;;;;;;;12.89;64.06;96055.88;5014987;28;20662;-78
2022/05/26 03:15:58;;;;;;;2.43;0.80;;;;;;;12.93;63.58;96057.25;5000756;28;20183;-78
2022/05/26 03:18:24;;;;;;;3.43;0.70;;;;;;;12.86;63.67;96065.81;5038423;28;20186;-78
2022/05/26 03:20:49;;;;;;;2.43;0.83;;;;;;;12.85;63.60;96066.78;5039678;28;20186;-78
2022/05/26 03:23:14;;;;;;;2.57;0.70;;;;;;;12.81;64.06;96070.63;5039180;28;20171;-78
2022/05/26 03:25:46;;;;;;;0.50;0.50;;;;;;;12.80;64.08;96071.59;5020933;28;20218;-79
2022/05/26 03:28:12;;;;;;;1.43;0.57;;;;;;;12.77;64.03;96068.31;5015427;28;20194;-79
2022/05/26 03:30:38;;;;;;;0.50;0.50;;;;;;;12.83;64.04;96071.31;5014837;28;20182;-79
2022/05/26 03:33:03;;;;;;;2.57;0.60;;;;;;;12.69;64.63;96067.44;4998955;28;20186;-79
2022/05/26 03:41:14;;;;;;;1.93;0.60;;;;;;;12.56;65.15;96083.44;4971273;28;20181;-78
2022/05/26 03:43:43;;;;;;;2.33;0.67;;;;;;;12.60;65.27;96084.75;5002302;28;20190;-79
2022/05/26 03:46:09;;;;;;;3.20;0.60;;;;;;;12.55;65.81;96096.59;4998021;28;20229;-79
2022/05/26 03:48:35;;;;;;;1.27;0.60;;;;;;;12.60;65.16;96092.56;5014773;28;20179;-79
2022/05/26 03:51:01;;;;;;;3.70;1.10;;;;;;;12.54;65.64;96087.94;5047455;28;20191;-79
2022/05/26 03:53:26;;;;;;;0.70;0.47;;;;;;;12.54;65.53;96087.94;4997918;28;20648;-79
2022/05/26 03:55:52;;;;;;;2.10;0.77;;;;;;;12.51;65.66;96093.47;5030985;28;20492;-80
2022/05/26 03:58:17;;;;;;;1.40;0.80;;;;;;;12.54;65.76;96093.16;5032118;28;20237;-78
2022/05/26 04:00:43;;;;;;;1.60;0.60;;;;;;;12.48;65.86;96096.38;5014445;28;20182;-80
2022/05/26 04:03:08;;;;;;;1.73;0.60;;;;;;;12.43;66.06;96098.56;5047059;28;20186;-79
2022/05/26 04:05:34;;;;;;;0.93;0.70;;;;;;;12.44;66.44;96098.41;5013424;28;20195;-78
2022/05/26 04:08:00;;;;;;;1.73;0.60;;;;;;;12.46;66.56;96103.50;5014047;28;20190;-79
2022/05/26 04:10:25;;;;;;;3.73;0.80;;;;;;;12.48;66.62;96105.00;5014399;28;20175;-78
2022/05/26 04:12:51;;;;;;;0.63;0.47;;;;;;;12.54;66.58;96113.19;4997836;28;20183;-80
2022/05/26 04:15:17;;;;;;;3.93;0.60;;;;;;;12.58;66.11;96110.16;4997155;28;20241;-79
2022/05/26 04:17:43;;;;;;;0.67;0.60;;;;;;;12.68;65.67;96117.91;5030330;28;20214;-80
2022/05/26 04:20:11;;;;;;;1.23;0.70;;;;;;;12.70;65.66;96122.00;5014147;28;20186;-79
2022/05/26 04:22:37;;;;;;;1.90;0.60;;;;;;;12.89;64.91;96123.66;4995666;28;20183;-80
2022/05/26 04:25:03;;;;;;;0.97;0.63;;;;;;;12.93;64.94;96130.22;5013091;28;20177;-79
2022/05/26 04:27:30;;;;;;;2.67;0.67;;;;;;;13.81;62.32;96122.50;4997738;28;20203;-79
2022/05/26 04:29:56;;;;;;;1.60;0.70;;;;;;;15.80;55.35;96126.19;4997729;28;20264;-79
2022/05/26 04:32:22;;;;;;;2.87;0.60;;;;;;;17.79;48.90;96137.03;5014059;28;20706;-79
2022/05/26 04:34:48;;;;;;;1.33;0.73;;;;;;;19.32;44.74;96131.97;5046407;28;20190;-78
2022/05/26 04:37:19;;;;;;;2.00;0.60;;;;;;;20.11;41.81;96141.56;5029972;28;20264;-79
2022/05/26 04:39:44;;;;;;;2.50;0.60;;;;;;;20.49;40.67;96149.94;5013658;28;20252;-78
2022/05/26 04:42:10;;;;;;;1.73;0.82;;;;;;;21.12;38.66;96148.81;5013892;28;20248;-79
2022/05/26 04:44:38;;;;;;;2.22;0.60;;;;;;;21.75;38.10;96149.38;5013105;28;20179;-79
2022/05/26 04:47:03;;;;;;;1.67;0.73;;;;;;;21.41;38.11;96154.81;4996994;28;20209;-77
2022/05/26 04:49:29;;;;;;;2.78;0.70;;;;;;;21.52;37.58;96156.84;5013162;28;20182;-79
2022/05/26 04:51:54;;;;;;;1.30;0.45;;;;;;;22.05;36.90;96152.41;5030794;28;20183;-78
2022/05/26 04:54:20;;;;;;;2.15;0.50;;;;;;;23.13;34.68;96151.97;4996537;28;20178;-79
2022/05/26 04:56:45;;;;;;;1.92;0.68;;;;;;;23.61;34.00;96159.50;4996332;28;20190;-77
2022/05/26 04:59:11;;;;;;;3.03;0.65;;;;;;;24.31;33.80;96160.16;5030486;28;20175;-76
2022/05/26 05:01:36;;;;;;;1.85;0.50;;;;;;;21.77;36.96;96160.53;4996391;28;20334;-77
2022/05/26 05:04:01;;;;;;;5.32;0.70;;;;;;;20.47;41.06;96154.59;5012010;28;20178;-78
2022/05/26 05:06:27;;;;;;;1.48;0.50;;;;;;;20.59;40.69;96155.72;5012449;28;20377;-77
2022/05/26 05:08:52;;;;;;;2.47;0.70;;;;;;;20.79;39.76;96156.59;4996621;28;20274;-78
2022/05/26 05:11:18;;;;;;;2.72;0.65;;;;;;;19.52;42.25;96161.13;5012963;28;20652;-78
2022/05/26 05:13:43;;;;;;;1.60;0.60;;;;;;;18.42;45.89;96157.78;5012585;28;20204;-77
2022/05/26 05:16:15;;;;;;;1.10;0.80;;;;;;;16.69;50.89;96159.22;4996782;28;20680;-78
2022/05/26 05:18:41;;;;;;;2.42;0.60;;;;;;;16.52;52.43;96152.38;4996595;28;20178;-78
2022/05/26 05:21:08;;;;;;;1.95;0.80;;;;;;;15.90;54.20;96158.25;5012950;28;20186;-77
2022/05/26 05:23:37;;;;;;;2.55;0.75;;;;;;;15.54;56.18;96163.78;5044552;28;20174;-76
2022/05/26 05:26:03;;;;;;;1.42;0.60;;;;;;;15.04;57.04;96171.75;4996049;28;20217;-78
2022/05/26 05:28:35;;;;;;;2.20;0.90;;;;;;;14.86;57.87;96166.63;5012991;28;20562;-78
2022/05/26 05:31:14;;;;;;;2.42;0.80;;;;;;;14.67;58.71;96156.44;4996607;28;20182;-77
2022/05/26 05:33:47;;;;;;;1.38;0.60;;;;;;;14.53;59.67;96172.72;4996232;28;20209;-76
2022/05/26 05:36:17;;;;;;;2.80;0.82;;;;;;;14.44;60.07;96174.44;4996229;28;20281;-78
2022/05/26 05:38:43;;;;;;;1.15;0.60;;;;;;;14.47;59.68;96189.00;5029338;28;20610;-78
2022/05/26 05:41:08;;;;;;;0.90;0.70;;;;;;;14.34;61.26;96185.00;5013155;28;20178;-78
2022/05/26 05:43:35;;;;;;;4.13;0.80;;;;;;;14.47;60.15;96184.59;5012530;28;20609;-78
2022/05/26 05:46:01;;;;;;;4.13;0.80;;;;;;;14.07;61.61;96190.41;5012899;28;20209;-78
2022/05/26 05:48:27;;;;;;;3.73;0.70;;;;;;;14.04;61.91;96191.50;5030593;28;20262;-78
2022/05/26 05:50:52;;;;;;;1.50;0.63;;;;;;;14.17;62.59;96193.72;5013145;28;20262;-78
2022/05/26 05:53:18;;;;;;;0.83;0.50;;;;;;;14.16;61.96;96190.28;5012839;28;20186;-77
2022/05/26 05:55:43;;;;;;;2.33;0.70;;;;;;;14.21;61.69;96195.03;4995904;28;20186;-79
2022/05/26 05:58:10;;;;;;;3.07;0.80;;;;;;;14.20;61.31;96201.25;5045486;28;20206;-78
2022/05/26 06:00:36;;;;;;;1.57;0.70;;;;;;;14.23;62.10;96208.78;4996259;28;20183;-77
2022/05/26 06:03:01;;;;;;;1.63;0.80;;;;;;;14.22;61.54;96206.31;5012594;28;20175;-77
2022/05/26 06:05:26;;;;;;;2.87;0.80;;;;;;;14.25;62.66;96206.84;5011808;28;20202;-78
2022/05/26 06:07:52;;;;;;;1.77;0.80;;;;;;;14.09;62.25;96212.75;5012338;28;20210;-78
2022/05/26 06:10:17;;;;;;;1.77;0.60;;;;;;;14.18;61.98;96203.19;5012646;28;20240;-78
2022/05/26 06:12:42;;;;;;;1.50;0.60;;;;;;;14.20;62.59;96209.06;5012494;28;20206;-78
2022/05/26 06:15:09;;;;;;;1.97;0.50;;;;;;;14.21;62.27;96209.91;5012042;28;20619;-79
2022/05/26 06:17:34;;;;;;;2.73;0.70;;;;;;;14.51;61.83;96216.50;5028848;28;20646;-78
2022/05/26 06:20:00;;;;;;;3.50;0.60;;;;;;;14.91;61.29;96215.84;5032484;28;20218;-79
2022/05/26 06:22:25;;;;;;;3.87;0.70;;;;;;;15.08;60.23;96214.91;4999705;28;20193;-77
2022/05/26 06:24:50;;;;;;;1.57;0.80;;;;;;;15.20;59.43;96226.72;5014588;28;20257;-78
2022/05/26 06:30:05;;;;;;;2.57;0.70;;;;;;;15.81;57.94;96230.78;5018836;28;20657;-77
2022/05/26 06:38:00;;;;;;;1.05;0.70;;;;;;;17.04;53.26;96233.97;5046818;28;20201;-78
2022/05/26 06:40:28;;;;;;;2.63;0.70;;;;;;;18.10;50.08;96234.16;4999678;28;20202;-78
2022/05/26 06:42:54;;;;;;;5.35;0.80;;;;;;;18.75;48.65;96234.56;5032218;28;20178;-78
2022/05/26 06:45:22;;;;;;;2.40;0.80;;;;;;;19.39;46.45;96235.56;5048266;28;20206;-78
2022/05/26 06:47:47;;;;;;;3.60;0.80;;;;;;;19.48;45.14;96234.44;5016035;28;20578;-79
2022/05/26 06:50:13;;;;;;;3.38;0.85;;;;;;;19.35;45.40;96239.56;5015678;28;20197;-78
2022/05/26 06:52:38;;;;;;;2.50;0.65;;;;;;;19.33;45.60;96235.47;5048712;28;20269;-78
2022/05/26 06:55:06;;;;;;;2.10;0.68;;;;;;;18.59;47.34;96244.22;5032926;28;20170;-78
2022/05/26 06:57:31;;;;;;;3.00;0.80;;;;;;;18.10;49.23;96249.91;5048700;28;20739;-78
2022/05/26 06:59:57;;;;;;;1.40;0.75;;;;;;;17.62;51.35;96245.00;4999183;28;20185;-76
2022/05/26 07:02:22;;;;;;;1.90;0.70;;;;;;;17.61;49.38;96244.19;4999076;28;20190;-79
2022/05/26 07:04:48;;;;;;;2.83;0.70;;;;;;;17.65;50.10;96253.34;5014903;28;20183;-78
2022/05/26 07:07:14;;;;;;;1.15;0.70;;;;;;;17.90;50.05;96247.97;5018620;28;20210;-76
2022/05/26 07:09:40;;;;;;;3.50;0.80;;;;;;;17.68;50.63;96255.66;5023624;28;20206;-76
2022/05/26 07:12:06;;;;;;;1.20;0.73;;;;;;;17.96;49.97;96252.53;5025169;28;20171;-76
2022/05/26 07:14:31;;;;;;;1.75;0.90;;;;;;;18.55;49.06;96247.38;5057311;28;20189;-76
2022/05/26 07:16:56;;;;;;;4.97;0.80;;;;;;;18.31;48.75;96256.34;5040954;28;20190;-76
2022/05/26 07:19:22;;;;;;;2.95;0.70;;;;;;;17.97;49.68;96254.16;5037779;28;20552;-77
2022/05/26 07:21:48;;;;;;;1.98;0.80;;;;;;;17.68;49.50;96260.06;4999881;28;20561;-77
2022/05/26 07:24:16;;;;;;;1.67;1.10;;;;;;;17.49;50.53;96262.16;4998445;28;20174;-77
2022/05/26 07:26:42;;;;;;;1.65;0.70;;;;;;;17.59;51.85;96269.00;5015047;28;20309;-78
2022/05/26 07:29:07;;;;;;;2.42;0.82;;;;;;;17.15;52.94;96277.44;5001549;28;20192;-78
2022/05/26 07:31:33;;;;;;;1.60;0.70;;;;;;;17.19;52.36;96274.28;5014978;28;20265;-78
2022/05/26 07:33:58;;;;;;;3.60;0.70;;;;;;;17.03;52.32;96276.16;5014777;28;20178;-78
2022/05/26 07:42:12;;;;;;;2.47;0.80;;;;;;;16.77;53.86;96286.88;5018151;28;20312;-79
2022/05/26 07:44:41;;;;;;;2.00;0.70;;;;;;;16.74;53.66;96276.72;5014278;28;20189;-79
2022/05/26 07:47:07;;;;;;;2.38;0.57;;;;;;;16.49;54.14;96289.03;5047727;28;20304;-79
2022/05/26 07:49:43;;;;;;;1.95;0.80;;;;;;;16.46;55.19;96295.44;5014530;28;20201;-79
2022/05/26 07:52:10;;;;;;;3.95;0.85;;;;;;;16.38;54.99;96290.19;4998268;28;20178;-79
2022/05/26 07:54:36;;;;;;;1.30;0.73;;;;;;;16.46;55.04;96300.69;5030050;28;20528;-78
2022/05/26 07:57:02;;;;;;;5.13;1.55;;;;;;;16.46;55.38;96300.69;5014249;28;20199;-78
2022/05/26 07:59:28;;;;;;;5.53;1.10;;;;;;;16.42;55.06;96294.13;5014131;28;20180;-76
2022/05/26 08:01:53;;;;;;;1.35;1.00;;;;;;;16.12;55.92;96296.44;5047477;28;20175;-79
2022/05/26 08:04:19;;;;;;;2.00;0.98;;;;;;;16.44;55.59;96300.03;5013934;28;20228;-79
2022/05/26 08:06:46;;;;;;;2.10;0.60;;;;;;;16.86;54.59;96291.13;5030602;28;20297;-78
2022/05/26 08:09:21;;;;;;;3.25;1.00;;;;;;;17.13;53.52;96297.75;4997978;28;20174;-78
2022/05/26 08:11:47;;;;;;;2.08;1.25;;;;;;;17.62;51.73;96295.72;4998128;28;20550;-79
2022/05/26 08:14:16;;;;;;;1.45;0.77;;;;;;;17.82;52.11;96298.75;4997407;28;20167;-79
2022/05/26 08:16:42;;;;;;;2.83;0.90;;;;;;;17.64;51.45;96292.91;5047578;28;20202;-78
2022/05/26 08:19:07;;;;;;;3.10;0.90;;;;;;;17.76;51.73;96300.28;5047866;28;20190;-79
2022/05/26 08:21:33;;;;;;;4.30;0.90;;;;;;;18.08;50.38;96298.41;5014988;28;20186;-78
2022/05/26 08:24:00;;;;;;;2.83;0.70;;;;;;;18.23;50.03;96311.59;5020457;28;20229;-76
2022/05/26 08:26:25;;;;;;;2.50;0.95;;;;;;;18.43;50.37;96312.75;5037256;28;20237;-77
2022/05/26 08:28:51;;;;;;;2.42;0.90;;;;;;;18.08;50.41;96308.91;4998233;28;20214;-76
2022/05/26 08:31:16;;;;;;;0.75;0.70;;;;;;;18.51;49.79;96311.84;5014412;28;20193;-77
2022/05/26 08:33:41;;;;;;;2.05;0.80;;;;;;;18.73;48.50;96313.66;5014204;28;20178;-78
2022/05/26 08:36:10;;;;;;;1.85;1.02;;;;;;;18.81;48.81;96323.25;5047005;28;20198;-76
2022/05/26 08:38:36;;;;;;;2.97;1.02;;;;;;;18.90;49.17;96314.28;5013748;28;20182;-78
2022/05/26 08:41:02;;;;;;;1.40;0.63;;;;;;;18.61;49.65;96325.56;5013734;28;20647;-79
2022/05/26 08:43:35;;;;;;;1.58;1.05;;;;;;;18.59;49.59;96328.38;5013430;28;20209;-78
2022/05/26 08:46:04;;;;;;;2.00;0.70;;;;;;;18.42;50.36;96329.53;5013132;28;20287;-78
2022/05/26 08:48:41;;;;;;;2.85;0.85;;;;;;;18.28;51.30;96336.34;4997565;28;20630;-78
2022/05/26 08:51:10;;;;;;;1.35;0.90;;;;;;;18.50;51.04;96339.16;4998351;28;20178;-78
2022/05/26 08:53:37;;;;;;;2.38;0.75;;;;;;;17.79;52.42;96347.22;4997621;28;20552;-79
2022/05/26 08:56:03;;;;;;;2.13;1.10;;;;;;;17.44;53.81;96332.75;5046192;28;20186;-78
2022/05/26 08:58:46;;;;;;;2.33;0.98;;;;;;;17.76;52.71;96337.06;5013712;28;20220;-78
2022/05/26 09:01:16;;;;;;;2.97;0.85;;;;;;;17.81;52.78;96337.34;4997282;28;20265;-79
2022/05/26 09:03:42;;;;;;;2.35;0.93;;;;;;;18.13;51.85;96334.69;5013330;28;20220;-78
2022/05/26 09:06:11;;;;;;;3.17;0.90;;;;;;;18.18;51.91;96335.78;5013413;28;20202;-79
2022/05/26 09:14:27;;;;;;;2.60;0.90;;;;;;;17.77;53.53;96338.69;5044167;28;20175;-78
2022/05/26 09:16:58;;;;;;;3.75;0.98;;;;;;;17.83;53.55;96337.97;5031048;28;20190;-78
2022/05/26 09:19:24;;;;;;;3.25;0.90;;;;;;;17.28;55.08;96340.69;5046822;28;20170;-77
2022/05/26 09:21:51;;;;;;;2.28;1.00;;;;;;;17.32;55.61;96344.63;5027523;28;20185;-77
2022/05/26 09:24:22;;;;;;;1.48;0.90;;;;;;;17.65;54.68;96337.38;5012522;28;20264;-77
2022/05/26 09:26:52;;;;;;;2.92;0.98;;;;;;;17.76;55.31;96342.31;5012303;28;20226;-77
2022/05/26 09:29:22;;;;;;;2.17;0.90;;;;;;;18.16;54.24;96342.22;5030077;28;20285;-76
2022/05/26 09:31:49;;;;;;;2.92;1.20;;;;;;;18.11;54.19;96335.69;5047937;28;20186;-77
2022/05/26 09:34:14;;;;;;;1.70;1.17;;;;;;;18.05;54.86;96344.25;5030992;28;20226;-77
2022/05/26 09:37:00;;;;;;;1.73;0.80;;;;;;;18.52;53.46;96347.69;5050853;28;20198;-76
2022/05/26 09:39:34;;;;;;;2.15;0.88;;;;;;;18.46;53.31;96351.81;5056157;28;20608;-79
2022/05/26 09:41:59;;;;;;;2.03;0.80;;;;;;;18.94;52.45;96355.88;5014234;28;20176;-78
2022/05/26 09:44:46;;;;;;;7.28;1.10;;;;;;;19.14;51.53;96361.41;5012437;28;20170;-78
2022/05/26 09:47:53;;;;;;;1.67;1.05;;;;;;;18.78;51.58;96365.72;5031740;28;20624;-79
2022/05/26 09:50:30;;;;;;;1.95;1.00;;;;;;;19.04;50.94;96362.69;4919396;29;20208;-78
2022/05/26 09:52:56;;;;;;;1.05;1.00;;;;;;;18.65;51.25;96364.53;4950684;28;20204;-78
2022/05/26 09:55:24;;;;;;;3.38;0.90;;;;;;;18.77;50.92;96364.91;4953414;29;20185;-78
2022/05/26 09:57:50;;;;;;;2.00;1.08;;;;;;;18.99;51.01;96365.03;4937681;29;20732;-79
2022/05/26 10:00:17;;;;;;;3.78;1.08;;;;;;;18.77;51.25;96374.63;4953643;29;20750;-79
2022/05/26 10:02:45;;;;;;;1.35;0.90;;;;;;;18.39;52.75;96379.84;4953886;29;20184;-77
2022/05/26 10:05:34;;;;;;;2.80;1.02;;;;;;;18.37;52.58;96381.81;4952979;29;20743;-78
2022/05/26 10:08:12;;;;;;;2.33;1.30;;;;;;;18.05;53.94;96377.59;4953675;29;20297;-77
2022/05/26 10:11:03;;;;;;;4.60;1.40;;;;;;;18.18;52.63;96377.84;4953503;29;20216;-78
2022/05/26 10:14:05;;;;;;;4.72;1.63;;;;;;;18.13;53.42;96379.38;4932998;29;20197;-77
2022/05/26 10:16:42;;;;;;;2.13;1.02;;;;;;;18.12;53.88;96378.56;4953727;29;20249;-78
2022/05/26 10:19:25;;;;;;;2.83;1.00;;;;;;;18.36;52.45;96378.38;4954045;29;20185;-77
2022/05/26 10:22:08;;;;;;;4.00;0.98;;;;;;;18.45;53.62;96379.13;4953660;29;20212;-77
2022/05/26 10:24:57;;;;;;;4.45;1.40;;;;;;;18.75;51.79;96372.19;4994225;28;20218;-78
2022/05/26 10:27:46;;;;;;;2.35;1.30;;;;;;;18.98;52.20;96377.38;4999901;28;20221;-78
2022/05/26 10:30:50;;;;;;;3.50;1.25;;;;;;;18.69;52.34;96370.25;5016583;28;20593;-78
2022/05/26 10:33:33;;;;;;;4.85;1.30;;;;;;;18.86;52.29;96371.75;4956783;28;20279;-78
2022/05/26 10:36:16;;;;;;;3.88;1.00;;;;;;;18.61;53.88;96372.91;4956258;28;20255;-79
2022/05/26 10:38:59;;;;;;;6.28;3.03;;;;;;;18.34;54.24;96369.84;4973054;28;20744;-79
2022/05/26 10:41:34;;;;;;;3.35;1.33;;;;;;;18.46;54.17;96367.59;4973187;28;20180;-79
2022/05/26 10:44:08;;;;;;;2.83;0.98;;;;;;;18.44;53.83;96376.69;4972326;28;20192;-79
2022/05/26 10:46:36;;;;;;;1.75;1.10;;;;;;;18.32;54.80;96378.91;4956844;28;20638;-79
2022/05/26 10:49:15;;;;;;;2.03;1.20;;;;;;;18.75;53.70;96376.63;4956594;28;20302;-78
2022/05/26 10:51:42;;;;;;;1.67;1.00;;;;;;;18.94;52.96;96370.84;4956361;28;20616;-79
2022/05/26 10:54:15;;;;;;;2.25;1.15;;;;;;;18.98;52.85;96373.94;4955997;28;20184;-77
2022/05/26 10:57:04;;;;;;;4.32;1.15;;;;;;;19.09;52.53;96369.06;4972388;28;20288;-77
2022/05/26 10:59:37;;;;;;;3.63;1.05;;;;;;;18.66;53.64;96370.63;4956576;28;20187;-79
2022/05/26 11:02:29;;;;;;;2.63;1.15;;;;;;;18.57;53.39;96377.72;4972136;28;20193;-77
2022/05/26 11:05:04;;;;;;;3.05;1.23;;;;;;;18.04;55.11;96375.97;4955533;28;20228;-79
2022/05/26 11:07:45;;;;;;;2.65;1.10;;;;;;;17.64;55.83;96375.16;4956029;28;20282;-76
2022/05/26 11:10:23;;;;;;;2.65;1.50;;;;;;;17.07;58.19;96383.25;4987267;28;20190;-78
2022/05/26 11:12:56;;;;;;;4.28;1.25;;;;;;;16.98;59.17;96377.19;5015717;28;20182;-78
2022/05/26 11:18:21;;;;;;;4.60;1.20;;;;;;;17.22;59.79;96376.28;5018504;28;20233;-79
2022/05/26 11:20:53;;;;;;;1.77;1.20;;;;;;;17.36;59.48;96373.97;5015640;28;20170;-77
2022/05/26 11:23:20;;;;;;;6.22;1.42;;;;;;;17.71;58.12;96375.31;5032339;28;20205;-77
2022/05/26 11:25:48;;;;;;;3.35;1.58;;;;;;;17.83;58.92;96374.75;5014713;28;20684;-77
2022/05/26 11:28:25;;;;;;;2.85;1.10;;;;;;;18.28;57.04;96378.41;5015524;28;20213;-80
2022/05/26 11:36:52;;;;;;;4.60;1.40;;;;;;;19.78;53.01;96379.28;5018342;28;20582;-79
2022/05/26 11:39:42;;;;;;;2.65;1.30;;;;;;;19.94;50.88;96368.53;4999481;28;20615;-79
2022/05/26 11:42:14;;;;;;;7.15;1.70;;;;;;;19.45;53.20;96371.78;5032853;28;20179;-79
2022/05/26 11:44:44;;;;;;;1.75;1.02;;;;;;;19.90;51.78;96369.94;5014351;28;20179;-78
2022/05/26 11:47:16;;;;;;;1.80;1.10;;;;;;;19.20;52.90;96373.88;5015469;28;20209;-76
2022/05/26 11:49:44;;;;;;;3.35;1.20;;;;;;;18.58;54.95;96368.03;5032356;28;20170;-79
2022/05/26 11:52:25;;;;;;;2.40;1.20;;;;;;;18.30;55.77;96375.63;5033261;28;20174;-79
2022/05/26 11:54:54;;;;;;;3.95;1.48;;;;;;;17.52;57.68;96373.91;5014850;28;20194;-78
2022/05/26 11:57:33;;;;;;;1.65;1.00;;;;;;;17.11;59.65;96363.53;5032782;28;20245;-79
2022/05/26 12:00:22;;;;;;;2.28;1.10;;;;;;;17.54;58.55;96369.28;4998645;28;20187;-78
2022/05/26 12:02:52;;;;;;;1.63;1.08;;;;;;;17.76;57.88;96368.56;4998394;28;20252;-78
2022/05/26 12:05:29;;;;;;;4.25;1.45;;;;;;;18.14;58.58;96366.06;5014734;28;20268;-78
2022/05/26 12:08:00;;;;;;;4.03;1.38;;;;;;;19.00;56.93;96362.25;5032127;28;20248;-78
2022/05/26 12:10:28;;;;;;;3.90;1.58;;;;;;;18.85;55.36;96364.03;5030827;28;20193;-79
2022/05/26 12:13:20;;;;;;;6.22;1.48;;;;;;;19.02;55.22;96365.50;4998199;28;20735;-79
2022/05/26 12:16:05;;;;;;;1.77;1.10;;;;;;;18.85;53.97;96375.38;5031159;28;20187;-78
2022/05/26 12:18:46;;;;;;;2.47;1.30;;;;;;;18.45;55.30;96373.88;4997673;28;20175;-78
2022/05/26 12:21:37;;;;;;;3.40;1.70;;;;;;;18.10;56.34;96370.81;5014462;28;20206;-78
2022/05/26 12:24:33;;;;;;;4.43;1.60;;;;;;;17.84;57.23;96370.31;4985624;28;20191;-79